Time;durP1;ratioP1;P1;durP2;ratioP2;P2;SDS_P1;SDS_P2;PMS_P1;PMS_P2;Temp;Humidity;BMP_temperature;BMP_pressure;BME280_temperature;BME280_humidity;BME280_pressure;Samples;Min_cycle;Max_cycle;Signal;HPM_P1;HPM_P2
2022/01/25 00:31:13;;;;;;;31.33;23.20;;;4.60;99.90;;;;;;4969788;28;20202;-62
2022/01/25 00:33:54;;;;;;;32.27;21.73;;;4.50;99.90;;;;;;4983657;28;20195;-63
2022/01/25 00:36:23;;;;;;;30.73;22.30;;;4.60;99.90;;;;;;4965075;28;20336;-62
2022/01/25 00:38:51;;;;;;;31.90;22.90;;;4.50;99.90;;;;;;4988567;28;20208;-62
2022/01/25 00:41:20;;;;;;;32.17;24.17;;;4.60;99.90;;;;;;4985631;28;20249;-62
2022/01/25 00:43:47;;;;;;;29.73;22.70;;;4.50;99.90;;;;;;4970442;28;20209;-62
2022/01/25 00:46:20;;;;;;;30.63;23.70;;;4.60;99.90;;;;;;4961973;28;20681;-62
2022/01/25 00:48:50;;;;;;;30.63;22.47;;;4.60;99.90;;;;;;4962294;28;20212;-62
2022/01/25 00:54:10;;;;;;;34.93;24.13;;;4.60;99.90;;;;;;4971025;28;20205;-63
2022/01/25 00:56:40;;;;;;;32.73;23.50;;;4.60;99.90;;;;;;4970194;28;20284;-64
2022/01/25 00:59:10;;;;;;;30.30;22.43;;;4.60;99.90;;;;;;4969033;28;20657;-63
2022/01/25 01:01:38;;;;;;;30.37;21.87;;;4.60;99.90;;;;;;4956615;28;20237;-63
2022/01/25 01:04:09;;;;;;;32.87;22.43;;;4.70;99.90;;;;;;4972851;28;20210;-63
2022/01/25 01:06:39;;;;;;;33.10;23.07;;;4.60;99.90;;;;;;4974269;28;20600;-64
2022/01/25 01:09:10;;;;;;;32.70;23.53;;;4.50;99.90;;;;;;4979813;28;20700;-62
2022/01/25 01:11:50;;;;;;;35.07;23.00;;;4.40;1.00;;;;;;4971840;28;20193;-63
2022/01/25 01:33:57;;;;;;;34.03;24.47;;;4.30;1.00;;;;;;4984759;28;20672;-62
2022/01/25 01:44:03;;;;;;;35.27;22.37;;;4.30;1.00;;;;;;4968452;28;20202;-63
2022/01/25 01:46:44;;;;;;;32.87;22.80;;;4.30;1.00;;;;;;4981751;28;20202;-62
2022/01/25 01:49:11;;;;;;;40.90;23.20;;;4.30;1.00;;;;;;4965426;28;20661;-63
2022/01/25 01:51:43;;;;;;;34.40;23.60;;;4.30;1.00;;;;;;4971112;28;20252;-62
2022/01/25 01:54:13;;;;;;;39.23;22.83;;;4.30;1.00;;;;;;4982157;28;20557;-63
2022/01/25 01:56:42;;;;;;;35.40;23.60;;;4.30;1.00;;;;;;4965546;28;21069;-63
2022/01/25 01:59:14;;;;;;;32.73;22.80;;;4.20;1.00;;;;;;4984747;28;20667;-62
2022/01/25 02:01:44;;;;;;;34.43;23.33;;;4.20;1.00;;;;;;4985800;28;20261;-63
2022/01/25 02:04:13;;;;;;;37.17;23.67;;;4.20;1.00;;;;;;4966998;28;20200;-63
2022/01/25 02:06:42;;;;;;;34.70;23.80;;;4.20;1.00;;;;;;4979517;28;20305;-63
2022/01/25 02:09:14;;;;;;;38.07;23.43;;;4.20;1.00;;;;;;4962396;28;20231;-62
2022/01/25 02:11:41;;;;;;;36.43;22.70;;;4.30;1.00;;;;;;4968706;28;20284;-63
2022/01/25 02:14:13;;;;;;;33.33;23.00;;;4.20;1.00;;;;;;4976076;28;20242;-63
2022/01/25 02:24:47;;;;;;;37.57;22.77;;;4.20;1.00;;;;;;4989378;28;20221;-62
2022/01/25 02:27:17;;;;;;;35.20;21.97;;;4.20;1.00;;;;;;4985241;28;20641;-63
2022/01/25 02:29:45;;;;;;;32.30;21.63;;;4.20;1.00;;;;;;4955302;28;20217;-63
2022/01/25 02:32:12;;;;;;;32.23;22.60;;;4.30;1.00;;;;;;4987954;28;20597;-63
2022/01/25 02:34:39;;;;;;;33.10;22.63;;;4.30;1.00;;;;;;4956341;28;20218;-63
2022/01/25 02:37:08;;;;;;;32.13;23.43;;;4.40;1.00;;;;;;4970605;28;20213;-64
2022/01/25 02:39:42;;;;;;;38.10;23.47;;;4.40;1.00;;;;;;4955126;28;20201;-61
2022/01/25 02:42:11;;;;;;;38.00;23.93;;;4.30;1.00;;;;;;4971857;28;20320;-62
2022/01/25 02:44:38;;;;;;;33.03;23.03;;;4.30;1.00;;;;;;4954511;28;20202;-62
2022/01/25 02:49:51;;;;;;;33.93;23.10;;;4.20;1.00;;;;;;4969138;28;20560;-62
2022/01/25 02:52:18;;;;;;;39.00;23.97;;;4.20;1.00;;;;;;4953499;28;20206;-63
2022/01/25 02:54:46;;;;;;;36.87;23.90;;;4.30;1.00;;;;;;4971712;28;20197;-61
2022/01/25 02:57:16;;;;;;;35.53;23.87;;;4.20;1.00;;;;;;4968819;28;20201;-62
2022/01/25 02:59:43;;;;;;;38.73;25.13;;;4.20;1.00;;;;;;4971178;28;20288;-62
2022/01/25 03:02:10;;;;;;;39.20;24.93;;;4.20;1.00;;;;;;4971121;28;20305;-63
2022/01/25 03:04:39;;;;;;;36.27;24.03;;;4.30;1.00;;;;;;4955248;28;20206;-63
2022/01/25 03:07:09;;;;;;;36.10;24.43;;;4.10;1.00;;;;;;4968956;28;20198;-62
2022/01/25 03:09:37;;;;;;;35.43;23.70;;;4.20;1.00;;;;;;4971628;28;20225;-63
2022/01/25 03:12:08;;;;;;;37.90;22.07;;;4.20;1.00;;;;;;4984940;28;20194;-62
2022/01/25 03:14:47;;;;;;;39.07;23.77;;;4.20;1.00;;;;;;4950179;28;20268;-62
2022/01/25 03:17:23;;;;;;;36.80;24.10;;;4.10;1.00;;;;;;4983894;28;20202;-62
2022/01/25 03:20:02;;;;;;;42.93;24.97;;;4.10;1.00;;;;;;4985947;28;20220;-61
2022/01/25 03:25:15;;;;;;;39.17;24.90;;;4.20;1.00;;;;;;4986370;28;20205;-63
2022/01/25 03:27:42;;;;;;;36.43;24.03;;;4.20;1.00;;;;;;4971640;28;20244;-61
2022/01/25 03:30:11;;;;;;;38.70;23.97;;;4.10;1.00;;;;;;4972061;28;20560;-62
2022/01/25 03:32:43;;;;;;;34.97;22.67;;;4.10;1.00;;;;;;4950301;28;20201;-64
2022/01/25 03:35:10;;;;;;;36.47;22.90;;;4.00;1.00;;;;;;4969379;28;20295;-62
2022/01/25 03:37:37;;;;;;;33.63;22.67;;;4.00;1.00;;;;;;4953847;28;20193;-62
2022/01/25 03:40:05;;;;;;;36.67;23.47;;;4.10;1.00;;;;;;4971324;28;20225;-61
2022/01/25 03:42:37;;;;;;;35.33;23.30;;;4.10;1.00;;;;;;4988129;28;20694;-61
2022/01/25 03:45:09;;;;;;;35.40;22.67;;;4.10;1.00;;;;;;4971630;28;20202;-62
2022/01/25 03:47:58;;;;;;;36.47;22.47;;;4.10;1.00;;;;;;4982823;28;20225;-61
2022/01/25 03:50:26;;;;;;;38.73;22.90;;;4.10;1.00;;;;;;4967291;28;20285;-62
2022/01/25 03:52:54;;;;;;;36.03;22.67;;;4.10;1.00;;;;;;4954765;28;20201;-61
2022/01/25 03:55:20;;;;;;;33.97;22.37;;;4.10;1.00;;;;;;4965953;28;20237;-62
2022/01/25 03:57:47;;;;;;;34.63;21.47;;;4.10;99.90;;;;;;4981488;28;20273;-62
2022/01/25 04:00:15;;;;;;;37.43;23.53;;;4.10;99.90;;;;;;4969557;28;20326;-62
2022/01/25 04:02:50;;;;;;;33.33;21.60;;;4.10;99.90;;;;;;4947683;28;20309;-61
2022/01/25 04:05:24;;;;;;;36.37;22.33;;;4.90;99.90;;;;;;4966858;28;20657;-61
2022/01/25 04:07:52;;;;;;;37.03;23.37;;;4.10;1.00;;;;;;4967984;28;20646;-62
2022/01/25 04:10:25;;;;;;;36.60;22.87;;;4.00;1.00;;;;;;4970458;28;20293;-62
2022/01/25 04:12:52;;;;;;;38.83;23.07;;;4.10;1.00;;;;;;4964382;28;20240;-63
2022/01/25 04:15:21;;;;;;;41.47;23.33;;;4.00;1.00;;;;;;4963304;28;20751;-62
2022/01/25 04:18:00;;;;;;;40.83;23.37;;;4.00;1.00;;;;;;4971803;28;20739;-62
2022/01/25 04:20:32;;;;;;;36.53;22.47;;;4.00;1.00;;;;;;4953344;28;20232;-62
2022/01/25 04:25:46;;;;;;;42.27;24.00;;;4.00;1.00;;;;;;4968353;28;20202;-61
2022/01/25 04:28:13;;;;;;;37.53;21.93;;;4.00;1.00;;;;;;4962114;28;20210;-61
2022/01/25 04:30:42;;;;;;;37.93;23.87;;;4.00;1.00;;;;;;4945265;28;20245;-62
2022/01/25 04:33:23;;;;;;;36.13;23.50;;;4.10;1.00;;;;;;4969497;28;20205;-62
2022/01/25 04:36:25;;;;;;;39.27;22.40;;;4.10;99.90;;;;;;4978551;28;20225;-62
2022/01/25 04:49:45;;;;;;;39.40;23.57;;;4.00;99.90;;;;;;4980833;28;20992;-63
2022/01/25 04:52:17;;;;;;;38.30;23.17;;;4.20;99.90;;;;;;4951583;28;20198;-62
2022/01/25 04:55:17;;;;;;;37.73;22.53;;;4.20;99.90;;;;;;4981095;28;20293;-63
2022/01/25 04:57:47;;;;;;;37.40;21.70;;;4.20;99.90;;;;;;4962650;28;20693;-61
2022/01/25 05:00:18;;;;;;;34.13;21.07;;;4.10;99.90;;;;;;4984356;28;20233;-62
2022/01/25 05:05:28;;;;;;;37.20;24.80;;;4.20;99.90;;;;;;4980189;28;20338;-61
2022/01/25 05:08:04;;;;;;;36.80;23.23;;;4.20;99.90;;;;;;4970684;28;20189;-62
2022/01/25 05:10:46;;;;;;;34.03;20.67;;;4.20;99.90;;;;;;4963842;28;20240;-61
2022/01/25 05:18:18;;;;;;;35.43;22.67;;;4.10;99.90;;;;;;4981486;28;20285;-61
2022/01/25 05:23:32;;;;;;;33.80;22.40;;;4.10;99.90;;;;;;4978365;28;20206;-62
2022/01/25 05:26:04;;;;;;;36.50;22.73;;;4.20;99.90;;;;;;4969147;28;20190;-62
2022/01/25 05:28:32;;;;;;;35.17;21.83;;;4.20;99.90;;;;;;4983268;28;20604;-62
2022/01/25 05:31:01;;;;;;;34.77;22.17;;;4.20;99.90;;;;;;4961365;28;20613;-61
2022/01/25 05:33:28;;;;;;;37.43;23.10;;;4.20;99.90;;;;;;4978757;28;20201;-62
2022/01/25 05:35:55;;;;;;;35.17;22.20;;;4.30;99.90;;;;;;4961872;28;20210;-62
2022/01/25 05:38:22;;;;;;;35.87;22.70;;;4.30;99.90;;;;;;4960156;28;20331;-63
2022/01/25 05:40:58;;;;;;;33.63;21.60;;;4.30;99.90;;;;;;4969321;28;20265;-62
2022/01/25 05:46:14;;;;;;;45.27;27.23;;;4.20;99.90;;;;;;4980491;28;20202;-62
2022/01/25 05:48:43;;;;;;;40.43;23.53;;;4.20;99.90;;;;;;4979393;28;20186;-63
2022/01/25 05:51:13;;;;;;;40.03;23.43;;;4.10;99.90;;;;;;4970056;28;20201;-63
2022/01/25 05:53:42;;;;;;;39.40;24.07;;;4.10;99.90;;;;;;4979889;28;20201;-63
2022/01/25 05:56:16;;;;;;;36.77;23.27;;;4.20;99.90;;;;;;4949872;28;20296;-64
2022/01/25 05:58:43;;;;;;;33.73;21.70;;;4.20;99.90;;;;;;4978968;28;20202;-62
2022/01/25 06:01:10;;;;;;;33.87;21.33;;;4.20;99.90;;;;;;4963498;28;20221;-63
2022/01/25 06:03:40;;;;;;;35.80;21.40;;;4.20;1.00;;;;;;4965161;28;20194;-63
2022/01/25 06:06:07;;;;;;;31.17;21.13;;;4.10;1.00;;;;;;4978620;28;20204;-63
2022/01/25 06:08:36;;;;;;;35.10;22.70;;;4.10;1.00;;;;;;4953162;28;20307;-62
2022/01/25 06:11:04;;;;;;;33.00;20.83;;;4.10;1.00;;;;;;4968673;28;20313;-62
2022/01/25 06:13:31;;;;;;;31.33;20.70;;;4.10;1.00;;;;;;4974710;28;20237;-62
2022/01/25 06:16:05;;;;;;;32.07;20.17;;;4.10;1.00;;;;;;4964377;28;20610;-62
2022/01/25 06:18:33;;;;;;;30.80;21.30;;;4.00;1.00;;;;;;4957194;28;20199;-62
2022/01/25 06:20:59;;;;;;;32.90;20.70;;;4.00;1.00;;;;;;4942350;28;20234;-62
2022/01/25 06:23:27;;;;;;;33.40;20.07;;;4.00;1.00;;;;;;4957789;28;20530;-63
2022/01/25 06:25:54;;;;;;;33.90;21.77;;;4.00;1.00;;;;;;4950378;28;20203;-61
2022/01/25 06:28:23;;;;;;;32.27;21.27;;;4.00;1.00;;;;;;4961071;28;20195;-63
2022/01/25 06:30:54;;;;;;;33.50;21.87;;;4.00;1.00;;;;;;4955949;28;20203;-62
2022/01/25 06:33:21;;;;;;;35.60;22.47;;;4.00;1.00;;;;;;4957607;28;20227;-63
2022/01/25 06:35:49;;;;;;;34.70;22.03;;;4.00;1.00;;;;;;4943849;28;20314;-63
2022/01/25 06:38:19;;;;;;;34.03;20.60;;;4.00;1.00;;;;;;4934451;28;20241;-62
2022/01/25 06:40:46;;;;;;;35.47;21.80;;;4.10;1.00;;;;;;4940803;28;20238;-61
2022/01/25 06:43:13;;;;;;;33.00;21.87;;;4.10;1.00;;;;;;4964437;28;20286;-63
2022/01/25 06:45:41;;;;;;;36.97;20.90;;;4.10;1.00;;;;;;4949532;28;20214;-61
2022/01/25 06:48:09;;;;;;;35.07;20.90;;;4.00;1.00;;;;;;4959314;28;20194;-63
2022/01/25 06:50:36;;;;;;;34.10;22.00;;;4.00;1.00;;;;;;4948883;28;20195;-62
2022/01/25 06:53:04;;;;;;;34.43;21.30;;;4.00;1.00;;;;;;4962098;28;20213;-62
2022/01/25 06:55:38;;;;;;;33.03;22.17;;;4.00;1.00;;;;;;4943998;28;20214;-62
2022/01/25 06:58:08;;;;;;;32.77;20.33;;;4.10;1.00;;;;;;4951221;28;20262;-61
2022/01/25 07:00:39;;;;;;;33.40;21.03;;;4.10;1.00;;;;;;4939363;28;20262;-62
2022/01/25 07:03:13;;;;;;;33.73;21.70;;;4.00;1.00;;;;;;4939184;28;20242;-63
2022/01/25 07:05:43;;;;;;;31.97;20.93;;;4.00;1.00;;;;;;4941941;28;20194;-62
2022/01/25 07:08:10;;;;;;;40.83;23.90;;;4.00;1.00;;;;;;4963133;28;20206;-63
2022/01/25 07:10:39;;;;;;;41.47;23.10;;;4.00;1.00;;;;;;4946025;28;20229;-62
2022/01/25 07:13:06;;;;;;;44.47;24.23;;;4.00;1.00;;;;;;4944026;28;20218;-63
2022/01/25 07:15:33;;;;;;;42.47;24.23;;;4.00;99.90;;;;;;4959289;28;20236;-61
2022/01/25 07:18:00;;;;;;;39.77;23.80;;;4.00;99.90;;;;;;4979418;28;20726;-62
2022/01/25 07:20:27;;;;;;;40.87;22.70;;;4.00;99.90;;;;;;4969974;28;20206;-63
2022/01/25 07:22:54;;;;;;;37.73;21.20;;;4.00;99.90;;;;;;4962682;28;20576;-62
2022/01/25 07:25:21;;;;;;;40.47;22.10;;;4.00;99.90;;;;;;4962909;28;20272;-62
2022/01/25 07:27:48;;;;;;;41.87;24.33;;;4.10;99.90;;;;;;4964524;28;20202;-63
2022/01/25 07:30:15;;;;;;;41.70;22.20;;;4.10;99.90;;;;;;4965035;28;20675;-62
2022/01/25 07:32:45;;;;;;;27.33;19.37;;;4.10;99.90;;;;;;4961830;28;20205;-62
2022/01/25 07:35:16;;;;;;;32.30;21.40;;;4.10;99.90;;;;;;4968839;28;20516;-62
2022/01/25 07:37:47;;;;;;;30.83;20.87;;;4.00;1.00;;;;;;4963743;28;20645;-62
2022/01/25 07:40:20;;;;;;;32.53;20.33;;;4.10;1.00;;;;;;4953435;28;20198;-62
2022/01/25 07:42:49;;;;;;;38.00;20.53;;;4.00;1.00;;;;;;4977376;28;20221;-63
2022/01/25 07:45:20;;;;;;;34.27;21.07;;;4.00;1.00;;;;;;4963823;28;20252;-62
2022/01/25 07:48:10;;;;;;;35.10;21.03;;;3.90;1.00;;;;;;4942785;28;20205;-63
2022/01/25 07:50:46;;;;;;;32.40;20.77;;;3.90;1.00;;;;;;4964107;28;20277;-62
2022/01/25 07:53:14;;;;;;;31.87;20.03;;;3.90;1.00;;;;;;4961915;28;20221;-62
2022/01/25 07:55:43;;;;;;;33.97;21.00;;;3.90;1.00;;;;;;4980808;28;20209;-61
2022/01/25 07:58:15;;;;;;;34.93;20.43;;;3.90;1.00;;;;;;4964373;28;20216;-63
2022/01/25 08:00:43;;;;;;;36.87;22.10;;;3.90;1.00;;;;;;4962206;28;20287;-63
2022/01/25 08:03:10;;;;;;;36.77;21.90;;;3.80;1.00;;;;;;4980536;28;20249;-63
2022/01/25 08:05:54;;;;;;;38.33;20.43;;;3.80;1.00;;;;;;4966555;28;20247;-64
2022/01/25 08:08:39;;;;;;;31.63;20.87;;;3.80;1.00;;;;;;4968429;28;20673;-62
2022/01/25 08:11:23;;;;;;;30.90;19.17;;;3.70;1.00;;;;;;4903096;29;20235;-63
2022/01/25 08:14:14;;;;;;;34.67;20.50;;;3.80;1.00;;;;;;4873550;29;20298;-63
2022/01/25 08:16:51;;;;;;;35.80;21.43;;;3.80;1.00;;;;;;4884717;29;20205;-62
2022/01/25 08:19:30;;;;;;;35.40;20.60;;;3.80;1.00;;;;;;4892787;29;20211;-63
2022/01/25 08:22:05;;;;;;;29.87;19.63;;;3.80;1.00;;;;;;4886692;29;20224;-64
2022/01/25 08:24:49;;;;;;;32.27;20.23;;;3.80;1.00;;;;;;4898779;29;20561;-63
2022/01/25 08:27:26;;;;;;;34.23;19.70;;;3.80;1.00;;;;;;4901021;29;20669;-62
2022/01/25 08:30:04;;;;;;;32.90;19.80;;;3.80;1.00;;;;;;4901462;29;20348;-62
2022/01/25 08:32:38;;;;;;;33.13;19.77;;;3.80;1.00;;;;;;4901043;29;20226;-63
2022/01/25 08:35:19;;;;;;;31.30;18.70;;;3.80;1.00;;;;;;4886919;29;20291;-62
2022/01/25 08:38:00;;;;;;;33.03;19.83;;;3.80;1.00;;;;;;4876559;29;20368;-63
2022/01/25 08:40:34;;;;;;;32.57;19.40;;;3.70;1.00;;;;;;4875438;29;20197;-62
2022/01/25 08:43:12;;;;;;;32.63;18.87;;;3.70;1.00;;;;;;4888196;29;20764;-63
2022/01/25 08:45:45;;;;;;;33.47;19.60;;;3.70;1.00;;;;;;4885048;29;20207;-63
2022/01/25 08:48:13;;;;;;;35.60;22.20;;;3.70;1.00;;;;;;4928595;28;20198;-62
2022/01/25 08:50:58;;;;;;;37.77;24.07;;;3.70;1.00;;;;;;4928276;28;20210;-63
2022/01/25 08:53:39;;;;;;;35.50;22.53;;;3.70;1.00;;;;;;4937400;28;20342;-63
2022/01/25 08:56:12;;;;;;;35.93;21.43;;;3.80;1.00;;;;;;4966844;28;20528;-62
2022/01/25 08:59:00;;;;;;;31.80;19.63;;;3.70;1.00;;;;;;4925639;29;20220;-64
2022/01/25 09:01:28;;;;;;;34.47;20.37;;;3.80;1.00;;;;;;4967008;28;20226;-63
2022/01/25 09:03:57;;;;;;;32.83;19.87;;;3.80;1.00;;;;;;4956082;28;20225;-62
2022/01/25 09:06:26;;;;;;;29.17;18.73;;;3.80;1.00;;;;;;4956078;28;20198;-62
2022/01/25 09:09:08;;;;;;;31.93;18.40;;;3.80;1.00;;;;;;4965303;28;20568;-64
2022/01/25 09:11:37;;;;;;;33.97;19.63;;;3.80;1.00;;;;;;4960761;28;20662;-64
2022/01/25 09:14:04;;;;;;;32.97;19.03;;;3.80;1.00;;;;;;4946430;28;20339;-62
2022/01/25 09:16:35;;;;;;;32.17;19.67;;;3.80;1.00;;;;;;4974805;28;20197;-62
2022/01/25 09:19:05;;;;;;;30.63;18.73;;;3.90;1.00;;;;;;4980686;28;20206;-63
2022/01/25 09:21:33;;;;;;;28.37;18.77;;;3.80;1.00;;;;;;4975543;28;20241;-63
2022/01/25 09:24:00;;;;;;;34.67;20.00;;;3.90;1.00;;;;;;4965163;28;20217;-64
2022/01/25 09:26:28;;;;;;;48.13;33.87;;;3.80;1.00;;;;;;4944580;28;20198;-63
2022/01/25 09:28:57;;;;;;;34.97;19.70;;;3.80;1.00;;;;;;4963823;28;20198;-63
2022/01/25 09:31:25;;;;;;;39.47;23.37;;;3.90;1.00;;;;;;4975756;28;20226;-61
2022/01/25 09:33:55;;;;;;;31.37;20.37;;;3.90;1.00;;;;;;4976658;28;20204;-62
2022/01/25 09:36:24;;;;;;;48.83;26.53;;;3.90;1.00;;;;;;4977747;28;20274;-62
2022/01/25 09:38:56;;;;;;;33.43;18.83;;;3.90;1.00;;;;;;4980457;28;20200;-63
2022/01/25 09:41:23;;;;;;;30.30;19.23;;;4.00;1.00;;;;;;4961293;28;20214;-62
2022/01/25 09:43:50;;;;;;;47.87;25.17;;;4.00;1.00;;;;;;4959781;28;20253;-62
2022/01/25 09:46:18;;;;;;;65.43;31.00;;;4.00;1.00;;;;;;4959411;28;20209;-62
2022/01/25 09:48:47;;;;;;;52.13;27.77;;;4.00;1.00;;;;;;4964131;28;20203;-62
2022/01/25 09:51:19;;;;;;;48.20;23.37;;;4.00;1.00;;;;;;4954734;28;20658;-63
2022/01/25 09:53:46;;;;;;;86.93;39.43;;;4.10;1.00;;;;;;4962994;28;20222;-62
2022/01/25 09:56:13;;;;;;;151.10;57.93;;;4.00;1.00;;;;;;4962603;28;20256;-63
2022/01/25 09:58:42;;;;;;;65.43;33.80;;;4.00;1.00;;;;;;4965039;28;20209;-62
2022/01/25 10:01:09;;;;;;;48.40;25.93;;;4.10;1.00;;;;;;4964549;28;20198;-63
2022/01/25 10:03:41;;;;;;;51.17;26.40;;;4.10;1.00;;;;;;4948702;28;20225;-63
2022/01/25 10:06:20;;;;;;;105.37;53.03;;;4.10;1.00;;;;;;4980870;28;20190;-62
2022/01/25 10:08:52;;;;;;;45.20;24.50;;;4.10;1.00;;;;;;4976541;28;20276;-63
2022/01/25 10:11:23;;;;;;;59.60;34.63;;;4.20;1.00;;;;;;4961838;28;20193;-62
2022/01/25 10:13:54;;;;;;;56.67;34.90;;;4.30;99.90;;;;;;4945114;28;20712;-62
2022/01/25 10:16:32;;;;;;;44.10;24.50;;;4.30;99.90;;;;;;4966187;28;20296;-62
2022/01/25 10:19:08;;;;;;;43.73;30.60;;;4.40;99.90;;;;;;4942625;28;20213;-63
2022/01/25 10:21:41;;;;;;;33.57;20.33;;;4.40;99.90;;;;;;4979013;28;20503;-62
2022/01/25 10:24:10;;;;;;;41.23;22.53;;;4.50;99.90;;;;;;4961556;28;20317;-63
2022/01/25 10:26:48;;;;;;;32.83;19.40;;;4.30;99.90;;;;;;4973810;28;20570;-62
2022/01/25 10:29:23;;;;;;;39.67;24.20;;;4.40;99.90;;;;;;4976930;28;20202;-62
2022/01/25 10:31:53;;;;;;;32.63;19.70;;;4.40;99.90;;;;;;4963702;28;20220;-62
2022/01/25 10:34:33;;;;;;;44.30;25.80;;;4.40;99.90;;;;;;4945951;28;20208;-63
2022/01/25 10:37:11;;;;;;;34.53;20.03;;;4.40;99.90;;;;;;4967363;28;20236;-62
2022/01/25 10:39:45;;;;;;;35.90;20.30;;;4.30;99.90;;;;;;4963266;28;20220;-63
2022/01/25 10:42:26;;;;;;;32.33;18.57;;;4.50;1.00;;;;;;4970938;28;20230;-62
2022/01/25 10:45:16;;;;;;;36.63;20.93;;;4.50;11.80;;;;;;4959571;28;20229;-62
2022/01/25 10:47:50;;;;;;;33.13;20.10;;;4.50;1.00;;;;;;4951100;28;20198;-63
2022/01/25 10:50:24;;;;;;;43.43;24.07;;;4.50;1.00;;;;;;4954087;28;20261;-63
2022/01/25 10:53:06;;;;;;;37.03;19.93;;;4.50;1.00;;;;;;4969291;28;20206;-62
2022/01/25 10:55:46;;;;;;;37.53;21.13;;;4.50;1.00;;;;;;4985820;28;20205;-62
2022/01/25 10:58:14;;;;;;;38.33;21.37;;;4.60;1.00;;;;;;4963147;28;20269;-62
2022/01/25 11:00:49;;;;;;;39.53;21.87;;;4.50;1.00;;;;;;4962214;28;20202;-62
2022/01/25 11:03:28;;;;;;;43.47;27.63;;;4.60;1.00;;;;;;4960732;28;20218;-62
2022/01/25 11:06:18;;;;;;;33.73;19.70;;;4.60;1.00;;;;;;4970807;28;20217;-62
2022/01/25 11:08:49;;;;;;;35.10;20.70;;;4.60;1.00;;;;;;4979099;28;20256;-62
2022/01/25 11:11:30;;;;;;;34.70;20.43;;;4.60;1.00;;;;;;4958240;28;20682;-62
2022/01/25 11:14:49;;;;;;;36.23;20.47;;;4.60;1.00;;;;;;4976843;28;20225;-62
2022/01/25 11:16:46;;;;;;;36.17;21.57;;;4.70;1.00;;;;;;4962170;28;20238;-62
2022/01/25 11:19:16;;;;;;;37.43;22.13;;;4.70;1.00;;;;;;4940747;28;20203;-63
2022/01/25 11:21:43;;;;;;;36.77;21.57;;;4.70;1.00;;;;;;4946498;28;20241;-62
2022/01/25 11:24:15;;;;;;;38.20;22.27;;;4.60;1.00;;;;;;4928203;28;20254;-63
2022/01/25 11:26:44;;;;;;;32.50;20.47;;;4.60;1.00;;;;;;4956449;28;20195;-62
2022/01/25 11:29:17;;;;;;;37.77;22.23;;;4.60;1.00;;;;;;4945197;28;20206;-64
2022/01/25 11:31:57;;;;;;;35.23;21.77;;;4.50;1.00;;;;;;4963061;28;20277;-62
2022/01/25 11:34:27;;;;;;;40.47;21.97;;;4.50;1.00;;;;;;4936450;28;20216;-62
2022/01/25 11:37:04;;;;;;;35.70;21.13;;;4.60;1.00;;;;;;4964709;28;20238;-62
2022/01/25 11:39:32;;;;;;;44.00;24.03;;;4.70;1.00;;;;;;4945103;28;20209;-62
2022/01/25 11:42:02;;;;;;;48.90;26.63;;;4.60;1.00;;;;;;4945361;28;20230;-63
2022/01/25 11:44:31;;;;;;;39.30;22.87;;;4.70;1.00;;;;;;4954949;28;20214;-62
2022/01/25 11:47:10;;;;;;;37.70;22.70;;;4.60;1.00;;;;;;4931902;28;20203;-62
2022/01/25 11:49:56;;;;;;;41.50;27.03;;;4.70;1.00;;;;;;4962867;28;20557;-62
2022/01/25 11:52:27;;;;;;;38.57;23.13;;;4.70;1.00;;;;;;4963538;28;20246;-63
2022/01/25 11:55:17;;;;;;;41.27;23.83;;;4.70;1.00;;;;;;4951641;28;20186;-63
2022/01/25 11:57:48;;;;;;;41.47;22.63;;;4.70;1.00;;;;;;4952351;28;20630;-61
2022/01/25 12:00:15;;;;;;;40.93;21.70;;;4.50;1.00;;;;;;4944422;28;20235;-62
2022/01/25 12:02:51;;;;;;;41.90;24.23;;;4.60;1.00;;;;;;4951085;28;20255;-62
2022/01/25 12:05:27;;;;;;;35.83;22.53;;;4.70;1.00;;;;;;4947171;28;20274;-62
2022/01/25 12:08:14;;;;;;;38.70;22.20;;;4.70;1.00;;;;;;4960863;28;20524;-61
2022/01/25 12:10:44;;;;;;;43.23;25.03;;;4.60;1.00;;;;;;4949875;28;20206;-62
2022/01/25 12:13:20;;;;;;;40.07;23.67;;;4.50;1.00;;;;;;4950510;28;20226;-62
2022/01/25 12:16:23;;;;;;;37.77;21.37;;;4.60;1.00;;;;;;4942237;28;20295;-62
2022/01/25 12:19:01;;;;;;;39.30;23.27;;;4.70;1.00;;;;;;4931411;28;20237;-61
2022/01/25 12:21:47;;;;;;;41.77;23.43;;;4.70;1.00;;;;;;4950544;28;20580;-62
2022/01/25 12:24:40;;;;;;;50.47;25.63;;;4.70;1.00;;;;;;4944727;28;20729;-62
2022/01/25 12:30:20;;;;;;;40.20;24.50;;;4.70;1.00;;;;;;4949547;28;20190;-62
2022/01/25 12:32:51;;;;;;;42.47;24.60;;;4.70;1.00;;;;;;4964105;28;20217;-63
2022/01/25 12:35:19;;;;;;;41.73;21.90;;;4.80;1.00;;;;;;4950285;28;20618;-62
2022/01/25 12:37:53;;;;;;;37.97;21.27;;;4.80;1.00;;;;;;4956298;28;20290;-62
2022/01/25 12:40:26;;;;;;;43.03;23.07;;;4.50;1.00;;;;;;4954079;28;20213;-63
2022/01/25 12:42:55;;;;;;;36.07;20.97;;;4.40;1.00;;;;;;4945661;28;20208;-63
2022/01/25 12:45:27;;;;;;;40.20;22.43;;;4.30;1.00;;;;;;4945886;28;20237;-64
2022/01/25 12:47:56;;;;;;;37.70;21.13;;;4.30;1.00;;;;;;4938170;28;20194;-63
2022/01/25 12:50:27;;;;;;;38.40;22.23;;;4.30;1.00;;;;;;4933468;28;20669;-63
2022/01/25 12:52:55;;;;;;;37.50;22.37;;;4.40;1.00;;;;;;4952157;28;20195;-62
2022/01/25 12:55:26;;;;;;;40.47;21.37;;;4.40;1.00;;;;;;4959619;28;20218;-63
2022/01/25 12:57:54;;;;;;;40.47;23.43;;;4.30;1.00;;;;;;4946760;28;20264;-63
2022/01/25 13:00:27;;;;;;;40.03;22.17;;;4.40;1.00;;;;;;4948827;28;20202;-63
2022/01/25 13:03:11;;;;;;;38.83;23.40;;;4.30;1.00;;;;;;4932218;28;20206;-62
2022/01/25 13:05:50;;;;;;;37.83;22.67;;;4.40;1.00;;;;;;4945075;28;20717;-63
2022/01/25 13:08:28;;;;;;;44.10;23.57;;;4.40;1.00;;;;;;4942502;28;20293;-62
2022/01/25 13:11:49;;;;;;;38.03;22.03;;;4.40;1.00;;;;;;4962767;28;20205;-62
2022/01/25 13:16:55;;;;;;;41.87;22.90;;;4.50;1.00;;;;;;4975300;28;20202;-63
2022/01/25 13:19:25;;;;;;;40.33;21.27;;;4.30;1.00;;;;;;4958365;28;20201;-62
2022/01/25 13:21:59;;;;;;;37.67;21.20;;;4.40;1.00;;;;;;4967220;28;20193;-63
2022/01/25 13:24:41;;;;;;;41.77;23.60;;;4.50;1.00;;;;;;4962784;28;20229;-63
2022/01/25 13:27:12;;;;;;;46.23;25.83;;;4.60;1.00;;;;;;4977012;28;20657;-63
2022/01/25 13:32:39;;;;;;;33.93;20.67;;;4.50;1.00;;;;;;4976027;28;20213;-63
2022/01/25 13:38:06;;;;;;;38.37;21.90;;;4.30;1.00;;;;;;4959649;28;20206;-62
2022/01/25 13:40:48;;;;;;;36.60;19.77;;;4.40;1.00;;;;;;4977379;28;20248;-63
2022/01/25 13:46:03;;;;;;;37.10;21.20;;;4.30;1.00;;;;;;4977239;28;20272;-63
2022/01/25 13:48:32;;;;;;;41.50;22.40;;;4.30;1.00;;;;;;4977891;28;20669;-63
2022/01/25 13:51:05;;;;;;;39.33;22.90;;;4.30;1.00;;;;;;4978499;28;20229;-63
2022/01/25 13:53:34;;;;;;;40.73;23.37;;;4.50;1.00;;;;;;4974942;28;20209;-63
2022/01/25 13:56:04;;;;;;;38.77;21.77;;;4.50;1.00;;;;;;4958531;28;20558;-63
2022/01/25 13:58:35;;;;;;;37.17;20.73;;;4.50;1.00;;;;;;4978992;28;20313;-63
2022/01/25 14:01:05;;;;;;;39.23;22.00;;;4.40;1.00;;;;;;4947128;28;20223;-63
2022/01/25 14:03:39;;;;;;;40.33;21.97;;;4.40;1.00;;;;;;4955279;28;21148;-62
2022/01/25 14:06:44;;;;;;;36.00;21.27;;;4.30;1.00;;;;;;4980191;28;20280;-64
2022/01/25 14:09:16;;;;;;;39.23;21.00;;;4.20;1.00;;;;;;4918680;29;20344;-63
2022/01/25 14:23:26;;;;;;;38.50;22.13;;;4.20;1.00;;;;;;4981311;28;20663;-62
2022/01/25 14:25:48;;;;;;;39.33;22.60;;;4.20;1.00;;;;;;4962392;28;20209;-61
2022/01/25 14:28:23;;;;;;;39.17;21.83;;;4.30;1.00;;;;;;4960408;28;20281;-62
2022/01/25 14:30:55;;;;;;;41.27;23.30;;;4.30;1.00;;;;;;4961104;28;20495;-63
2022/01/25 14:33:30;;;;;;;45.33;24.57;;;4.40;1.00;;;;;;4973440;28;20279;-61
2022/01/25 14:36:06;;;;;;;47.63;26.40;;;4.50;1.00;;;;;;4977336;28;20189;-62
2022/01/25 14:38:40;;;;;;;41.13;22.80;;;4.60;1.00;;;;;;4975967;28;20210;-62
2022/01/25 14:41:13;;;;;;;43.03;21.67;;;4.60;1.00;;;;;;4976488;28;20326;-61
2022/01/25 14:43:50;;;;;;;36.50;21.77;;;4.60;1.00;;;;;;4979812;28;20698;-63
2022/01/25 14:46:32;;;;;;;39.60;23.20;;;4.70;1.00;;;;;;4970180;28;20198;-62
2022/01/25 14:49:21;;;;;;;34.70;20.30;;;4.70;1.00;;;;;;4959363;28;20229;-62
2022/01/25 14:52:01;;;;;;;40.23;21.43;;;4.60;1.00;;;;;;4969369;28;20214;-62
2022/01/25 14:54:42;;;;;;;40.63;22.30;;;4.50;1.00;;;;;;4966431;28;20272;-62
2022/01/25 14:57:13;;;;;;;42.03;23.00;;;4.40;1.00;;;;;;4966484;28;20221;-62
2022/01/25 14:59:47;;;;;;;39.57;23.03;;;4.40;1.00;;;;;;4981316;28;20193;-63
2022/01/25 15:02:21;;;;;;;42.83;23.70;;;4.30;1.00;;;;;;4987648;28;20197;-62
2022/01/25 15:04:52;;;;;;;37.13;21.97;;;4.10;1.00;;;;;;4985247;28;20218;-62
2022/01/25 15:07:25;;;;;;;42.20;22.57;;;4.20;1.00;;;;;;4999173;28;20216;-62
2022/01/25 15:12:26;;;;;;;39.03;22.77;;;4.20;1.00;;;;;;4998957;28;20205;-62
2022/01/25 15:15:04;;;;;;;40.73;22.53;;;4.30;1.00;;;;;;4985786;28;20248;-62
2022/01/25 15:17:31;;;;;;;42.50;23.57;;;4.30;1.00;;;;;;5002749;28;20254;-62
2022/01/25 15:19:58;;;;;;;38.43;21.43;;;4.30;1.00;;;;;;4969499;28;20825;-63
2022/01/25 15:22:26;;;;;;;38.67;21.90;;;4.30;1.00;;;;;;5001884;28;20208;-62